sensor_id;sensor_type;location;lat;lon;timestamp;P1;durP1;ratioP1;P2;durP2;ratioP2
12118;SDS011;6123;48.864;9.200;2024-03-25T00:01:40;4.00;;;2.20;;
12118;SDS011;6123;48.864;9.200;2024-03-25T00:04:06;2.17;;;1.38;;
12118;SDS011;6123;48.864;9.200;2024-03-25T00:06:31;3.15;;;2.08;;
12118;SDS011;6123;48.864;9.200;2024-03-25T00:09:00;3.83;;;1.88;;
12118;SDS011;6123;48.864;9.200;2024-03-25T00:11:26;3.05;;;1.90;;
12118;SDS011;6123;48.864;9.200;2024-03-25T00:13:52;4.45;;;1.92;;
12118;SDS011;6123;48.864;9.200;2024-03-25T00:16:18;3.47;;;2.10;;
12118;SDS011;6123;48.864;9.200;2024-03-25T00:18:43;2.92;;;1.95;;
12118;SDS011;6123;48.864;9.200;2024-03-25T00:21:09;2.53;;;1.95;;
12118;SDS011;6123;48.864;9.200;2024-03-25T00:23:34;2.35;;;1.70;;
12118;SDS011;6123;48.864;9.200;2024-03-25T00:26:00;3.65;;;2.28;;
12118;SDS011;6123;48.864;9.200;2024-03-25T00:28:25;4.35;;;2.08;;
12118;SDS011;6123;48.864;9.200;2024-03-25T00:30:51;3.88;;;1.90;;
12118;SDS011;6123;48.864;9.200;2024-03-25T00:33:16;4.55;;;2.13;;
12118;SDS011;6123;48.864;9.200;2024-03-25T00:35:42;4.00;;;1.83;;
12118;SDS011;6123;48.864;9.200;2024-03-25T00:38:10;4.07;;;2.13;;
12118;SDS011;6123;48.864;9.200;2024-03-25T00:40:36;4.65;;;2.40;;
12118;SDS011;6123;48.864;9.200;2024-03-25T00:43:01;4.40;;;2.20;;
12118;SDS011;6123;48.864;9.200;2024-03-25T00:45:27;3.03;;;2.13;;
12118;SDS011;6123;48.864;9.200;2024-03-25T00:47:56;2.65;;;2.30;;
12118;SDS011;6123;48.864;9.200;2024-03-25T00:50:21;2.67;;;2.25;;
12118;SDS011;6123;48.864;9.200;2024-03-25T00:52:47;4.43;;;2.10;;
12118;SDS011;6123;48.864;9.200;2024-03-25T00:55:12;3.08;;;2.10;;
12118;SDS011;6123;48.864;9.200;2024-03-25T00:57:39;4.80;;;2.50;;
12118;SDS011;6123;48.864;9.200;2024-03-25T01:00:05;2.45;;;2.10;;
12118;SDS011;6123;48.864;9.200;2024-03-25T01:02:31;2.95;;;2.13;;
12118;SDS011;6123;48.864;9.200;2024-03-25T01:04:57;3.03;;;2.05;;
12118;SDS011;6123;48.864;9.200;2024-03-25T01:07:24;2.75;;;2.17;;
12118;SDS011;6123;48.864;9.200;2024-03-25T01:09:50;2.40;;;1.95;;
12118;SDS011;6123;48.864;9.200;2024-03-25T01:12:16;2.03;;;1.85;;
12118;SDS011;6123;48.864;9.200;2024-03-25T01:14:41;3.10;;;1.85;;
12118;SDS011;6123;48.864;9.200;2024-03-25T01:17:07;2.72;;;1.73;;
12118;SDS011;6123;48.864;9.200;2024-03-25T01:19:33;4.50;;;2.40;;
12118;SDS011;6123;48.864;9.200;2024-03-25T01:21:58;2.75;;;2.13;;
12118;SDS011;6123;48.864;9.200;2024-03-25T01:24:24;1.88;;;1.77;;
12118;SDS011;6123;48.864;9.200;2024-03-25T01:26:50;2.63;;;1.95;;
12118;SDS011;6123;48.864;9.200;2024-03-25T01:29:16;2.92;;;1.95;;
12118;SDS011;6123;48.864;9.200;2024-03-25T01:31:43;1.88;;;1.67;;
12118;SDS011;6123;48.864;9.200;2024-03-25T01:34:09;1.92;;;1.70;;
12118;SDS011;6123;48.864;9.200;2024-03-25T01:36:34;2.65;;;1.85;;
12118;SDS011;6123;48.864;9.200;2024-03-25T01:39:00;2.67;;;1.85;;
12118;SDS011;6123;48.864;9.200;2024-03-25T01:41:25;3.65;;;2.03;;
12118;SDS011;6123;48.864;9.200;2024-03-25T01:43:51;2.22;;;1.90;;
12118;SDS011;6123;48.864;9.200;2024-03-25T01:46:17;2.20;;;2.00;;
12118;SDS011;6123;48.864;9.200;2024-03-25T01:48:44;3.42;;;1.80;;
12118;SDS011;6123;48.864;9.200;2024-03-25T01:51:10;3.20;;;2.22;;
12118;SDS011;6123;48.864;9.200;2024-03-25T01:53:37;3.38;;;2.15;;
12118;SDS011;6123;48.864;9.200;2024-03-25T01:56:04;3.30;;;2.28;;
12118;SDS011;6123;48.864;9.200;2024-03-25T01:58:30;2.85;;;2.03;;
12118;SDS011;6123;48.864;9.200;2024-03-25T02:00:56;3.65;;;2.55;;
12118;SDS011;6123;48.864;9.200;2024-03-25T02:03:26;1.88;;;1.70;;
12118;SDS011;6123;48.864;9.200;2024-03-25T02:05:55;3.13;;;2.13;;
12118;SDS011;6123;48.864;9.200;2024-03-25T02:08:23;3.17;;;1.85;;
12118;SDS011;6123;48.864;9.200;2024-03-25T02:10:50;1.90;;;1.80;;
12118;SDS011;6123;48.864;9.200;2024-03-25T02:13:17;3.25;;;2.40;;
12118;SDS011;6123;48.864;9.200;2024-03-25T02:15:43;4.10;;;2.70;;
12118;SDS011;6123;48.864;9.200;2024-03-25T02:18:09;2.95;;;2.20;;
12118;SDS011;6123;48.864;9.200;2024-03-25T02:20:34;2.58;;;2.22;;
12118;SDS011;6123;48.864;9.200;2024-03-25T02:23:00;3.05;;;2.30;;
12118;SDS011;6123;48.864;9.200;2024-03-25T02:25:26;3.13;;;1.98;;
12118;SDS011;6123;48.864;9.200;2024-03-25T02:27:52;3.53;;;2.60;;
12118;SDS011;6123;48.864;9.200;2024-03-25T02:30:18;3.55;;;2.20;;
12118;SDS011;6123;48.864;9.200;2024-03-25T02:32:43;4.03;;;2.40;;
12118;SDS011;6123;48.864;9.200;2024-03-25T02:35:12;4.03;;;2.33;;
12118;SDS011;6123;48.864;9.200;2024-03-25T02:37:41;3.60;;;2.33;;
12118;SDS011;6123;48.864;9.200;2024-03-25T02:40:08;3.13;;;2.30;;
12118;SDS011;6123;48.864;9.200;2024-03-25T02:42:35;4.70;;;2.53;;
12118;SDS011;6123;48.864;9.200;2024-03-25T02:45:02;2.50;;;2.25;;
12118;SDS011;6123;48.864;9.200;2024-03-25T02:47:28;2.65;;;2.17;;
12118;SDS011;6123;48.864;9.200;2024-03-25T02:49:54;3.83;;;2.53;;
12118;SDS011;6123;48.864;9.200;2024-03-25T02:52:19;8.57;;;2.28;;
12118;SDS011;6123;48.864;9.200;2024-03-25T02:54:46;2.95;;;2.15;;
12118;SDS011;6123;48.864;9.200;2024-03-25T02:57:11;3.20;;;2.10;;
12118;SDS011;6123;48.864;9.200;2024-03-25T02:59:37;4.20;;;2.28;;
12118;SDS011;6123;48.864;9.200;2024-03-25T03:02:02;2.60;;;2.40;;
12118;SDS011;6123;48.864;9.200;2024-03-25T03:04:28;3.53;;;2.25;;
12118;SDS011;6123;48.864;9.200;2024-03-25T03:06:53;4.68;;;2.20;;
12118;SDS011;6123;48.864;9.200;2024-03-25T03:09:19;6.03;;;3.00;;
12118;SDS011;6123;48.864;9.200;2024-03-25T03:11:44;3.83;;;2.38;;
12118;SDS011;6123;48.864;9.200;2024-03-25T03:14:11;3.22;;;2.30;;
12118;SDS011;6123;48.864;9.200;2024-03-25T03:16:36;3.65;;;2.63;;
12118;SDS011;6123;48.864;9.200;2024-03-25T03:19:02;4.95;;;2.40;;
12118;SDS011;6123;48.864;9.200;2024-03-25T03:21:28;4.85;;;2.30;;
12118;SDS011;6123;48.864;9.200;2024-03-25T03:23:55;3.53;;;2.28;;
12118;SDS011;6123;48.864;9.200;2024-03-25T03:26:20;2.72;;;2.53;;
12118;SDS011;6123;48.864;9.200;2024-03-25T03:28:46;3.78;;;2.70;;
12118;SDS011;6123;48.864;9.200;2024-03-25T03:31:11;3.42;;;2.30;;
12118;SDS011;6123;48.864;9.200;2024-03-25T03:33:37;5.70;;;2.80;;
12118;SDS011;6123;48.864;9.200;2024-03-25T03:36:02;4.35;;;2.88;;
12118;SDS011;6123;48.864;9.200;2024-03-25T03:38:28;3.40;;;2.28;;
12118;SDS011;6123;48.864;9.200;2024-03-25T03:40:57;4.35;;;2.65;;
12118;SDS011;6123;48.864;9.200;2024-03-25T03:43:27;6.50;;;3.15;;
12118;SDS011;6123;48.864;9.200;2024-03-25T03:45:53;3.40;;;2.70;;
12118;SDS011;6123;48.864;9.200;2024-03-25T03:48:19;3.05;;;2.65;;
12118;SDS011;6123;48.864;9.200;2024-03-25T03:50:44;4.53;;;3.10;;
12118;SDS011;6123;48.864;9.200;2024-03-25T03:53:10;4.30;;;2.42;;
12118;SDS011;6123;48.864;9.200;2024-03-25T03:55:36;5.53;;;2.63;;
12118;SDS011;6123;48.864;9.200;2024-03-25T03:58:02;5.90;;;3.15;;
12118;SDS011;6123;48.864;9.200;2024-03-25T04:00:28;7.00;;;3.22;;
12118;SDS011;6123;48.864;9.200;2024-03-25T04:02:53;3.72;;;2.40;;
12118;SDS011;6123;48.864;9.200;2024-03-25T04:05:19;3.25;;;2.80;;
12118;SDS011;6123;48.864;9.200;2024-03-25T04:07:44;4.10;;;2.67;;
12118;SDS011;6123;48.864;9.200;2024-03-25T04:10:10;5.80;;;2.85;;
12118;SDS011;6123;48.864;9.200;2024-03-25T04:12:36;3.67;;;2.45;;
12118;SDS011;6123;48.864;9.200;2024-03-25T04:15:02;4.78;;;2.80;;
12118;SDS011;6123;48.864;9.200;2024-03-25T04:17:28;5.78;;;2.90;;
12118;SDS011;6123;48.864;9.200;2024-03-25T04:19:54;4.50;;;2.65;;
12118;SDS011;6123;48.864;9.200;2024-03-25T04:22:19;3.58;;;2.75;;
12118;SDS011;6123;48.864;9.200;2024-03-25T04:24:45;3.88;;;2.65;;
12118;SDS011;6123;48.864;9.200;2024-03-25T04:27:11;4.22;;;2.80;;
12118;SDS011;6123;48.864;9.200;2024-03-25T04:29:37;4.20;;;2.75;;
12118;SDS011;6123;48.864;9.200;2024-03-25T04:32:02;4.50;;;2.90;;
12118;SDS011;6123;48.864;9.200;2024-03-25T04:34:29;3.78;;;2.85;;
12118;SDS011;6123;48.864;9.200;2024-03-25T04:36:54;4.65;;;2.80;;
12118;SDS011;6123;48.864;9.200;2024-03-25T04:39:20;3.25;;;2.50;;
12118;SDS011;6123;48.864;9.200;2024-03-25T04:41:47;5.65;;;2.38;;
12118;SDS011;6123;48.864;9.200;2024-03-25T04:44:12;3.58;;;2.70;;
12118;SDS011;6123;48.864;9.200;2024-03-25T04:46:38;3.67;;;3.07;;
12118;SDS011;6123;48.864;9.200;2024-03-25T04:49:03;4.68;;;2.65;;
12118;SDS011;6123;48.864;9.200;2024-03-25T04:51:29;4.32;;;2.85;;
12118;SDS011;6123;48.864;9.200;2024-03-25T04:53:56;4.13;;;2.85;;
12118;SDS011;6123;48.864;9.200;2024-03-25T04:56:22;4.25;;;3.13;;
12118;SDS011;6123;48.864;9.200;2024-03-25T04:58:47;5.05;;;2.70;;
12118;SDS011;6123;48.864;9.200;2024-03-25T05:01:13;3.10;;;2.88;;
12118;SDS011;6123;48.864;9.200;2024-03-25T05:03:39;4.80;;;2.97;;
12118;SDS011;6123;48.864;9.200;2024-03-25T05:06:05;4.32;;;3.03;;
12118;SDS011;6123;48.864;9.200;2024-03-25T05:08:30;5.07;;;2.85;;
12118;SDS011;6123;48.864;9.200;2024-03-25T05:10:57;3.95;;;2.83;;
12118;SDS011;6123;48.864;9.200;2024-03-25T05:13:22;4.80;;;2.60;;
12118;SDS011;6123;48.864;9.200;2024-03-25T05:15:51;3.67;;;2.80;;
12118;SDS011;6123;48.864;9.200;2024-03-25T05:18:17;4.25;;;2.92;;
12118;SDS011;6123;48.864;9.200;2024-03-25T05:20:43;3.60;;;3.10;;
12118;SDS011;6123;48.864;9.200;2024-03-25T05:23:09;3.97;;;2.80;;
12118;SDS011;6123;48.864;9.200;2024-03-25T05:25:35;4.85;;;2.80;;
12118;SDS011;6123;48.864;9.200;2024-03-25T05:28:01;5.32;;;3.00;;
12118;SDS011;6123;48.864;9.200;2024-03-25T05:30:27;3.90;;;2.72;;
12118;SDS011;6123;48.864;9.200;2024-03-25T05:32:52;4.93;;;2.90;;
12118;SDS011;6123;48.864;9.200;2024-03-25T05:35:18;3.92;;;2.80;;
12118;SDS011;6123;48.864;9.200;2024-03-25T05:37:43;5.30;;;3.40;;
12118;SDS011;6123;48.864;9.200;2024-03-25T05:40:09;4.38;;;3.50;;
12118;SDS011;6123;48.864;9.200;2024-03-25T05:42:38;5.40;;;3.15;;
12118;SDS011;6123;48.864;9.200;2024-03-25T05:45:04;4.18;;;2.90;;
12118;SDS011;6123;48.864;9.200;2024-03-25T05:47:29;4.60;;;2.90;;
12118;SDS011;6123;48.864;9.200;2024-03-25T05:49:55;6.05;;;3.10;;
12118;SDS011;6123;48.864;9.200;2024-03-25T05:52:21;3.38;;;2.70;;
12118;SDS011;6123;48.864;9.200;2024-03-25T05:54:47;4.03;;;2.67;;
12118;SDS011;6123;48.864;9.200;2024-03-25T05:57:12;4.55;;;2.90;;
12118;SDS011;6123;48.864;9.200;2024-03-25T05:59:38;5.10;;;2.78;;
12118;SDS011;6123;48.864;9.200;2024-03-25T06:02:03;3.03;;;2.58;;
12118;SDS011;6123;48.864;9.200;2024-03-25T06:04:29;4.75;;;2.78;;
12118;SDS011;6123;48.864;9.200;2024-03-25T06:06:54;3.50;;;3.20;;
12118;SDS011;6123;48.864;9.200;2024-03-25T06:09:20;4.85;;;3.05;;
12118;SDS011;6123;48.864;9.200;2024-03-25T06:11:46;4.68;;;2.75;;
12118;SDS011;6123;48.864;9.200;2024-03-25T06:14:11;3.88;;;3.28;;
12118;SDS011;6123;48.864;9.200;2024-03-25T06:16:37;4.00;;;3.10;;
12118;SDS011;6123;48.864;9.200;2024-03-25T06:19:03;4.22;;;2.92;;
12118;SDS011;6123;48.864;9.200;2024-03-25T06:21:28;4.63;;;2.60;;
12118;SDS011;6123;48.864;9.200;2024-03-25T06:23:54;4.88;;;3.03;;
12118;SDS011;6123;48.864;9.200;2024-03-25T06:26:19;4.22;;;3.10;;
12118;SDS011;6123;48.864;9.200;2024-03-25T06:28:45;4.22;;;2.75;;
12118;SDS011;6123;48.864;9.200;2024-03-25T06:31:10;5.40;;;3.10;;
12118;SDS011;6123;48.864;9.200;2024-03-25T06:33:55;3.58;;;2.80;;
12118;SDS011;6123;48.864;9.200;2024-03-25T06:36:39;4.78;;;2.85;;
12118;SDS011;6123;48.864;9.200;2024-03-25T06:39:05;4.38;;;2.67;;
12118;SDS011;6123;48.864;9.200;2024-03-25T06:41:31;3.58;;;2.83;;
12118;SDS011;6123;48.864;9.200;2024-03-25T06:43:56;3.70;;;2.80;;
12118;SDS011;6123;48.864;9.200;2024-03-25T06:46:22;3.55;;;2.80;;
12118;SDS011;6123;48.864;9.200;2024-03-25T06:48:48;3.47;;;2.70;;
12118;SDS011;6123;48.864;9.200;2024-03-25T06:51:13;5.57;;;2.90;;
12118;SDS011;6123;48.864;9.200;2024-03-25T06:53:39;3.40;;;2.75;;
12118;SDS011;6123;48.864;9.200;2024-03-25T06:56:05;2.92;;;2.63;;
12118;SDS011;6123;48.864;9.200;2024-03-25T06:58:30;4.03;;;3.15;;
12118;SDS011;6123;48.864;9.200;2024-03-25T07:00:56;6.70;;;3.33;;
12118;SDS011;6123;48.864;9.200;2024-03-25T07:03:28;4.75;;;3.00;;
12118;SDS011;6123;48.864;9.200;2024-03-25T07:05:54;5.40;;;3.03;;
12118;SDS011;6123;48.864;9.200;2024-03-25T07:08:24;3.75;;;2.88;;
12118;SDS011;6123;48.864;9.200;2024-03-25T07:10:49;3.50;;;2.85;;
12118;SDS011;6123;48.864;9.200;2024-03-25T07:13:15;3.85;;;2.85;;
12118;SDS011;6123;48.864;9.200;2024-03-25T07:15:42;5.30;;;3.33;;
12118;SDS011;6123;48.864;9.200;2024-03-25T07:18:08;4.47;;;2.83;;
12118;SDS011;6123;48.864;9.200;2024-03-25T07:20:35;4.63;;;3.10;;
12118;SDS011;6123;48.864;9.200;2024-03-25T07:23:01;5.78;;;2.88;;
12118;SDS011;6123;48.864;9.200;2024-03-25T07:25:28;5.68;;;3.28;;
12118;SDS011;6123;48.864;9.200;2024-03-25T07:27:54;3.35;;;2.95;;
12118;SDS011;6123;48.864;9.200;2024-03-25T07:30:20;5.25;;;3.08;;
12118;SDS011;6123;48.864;9.200;2024-03-25T07:32:47;3.85;;;2.70;;
12118;SDS011;6123;48.864;9.200;2024-03-25T07:35:13;8.60;;;3.00;;
12118;SDS011;6123;48.864;9.200;2024-03-25T07:37:41;4.72;;;2.63;;
12118;SDS011;6123;48.864;9.200;2024-03-25T07:40:07;4.50;;;2.72;;
12118;SDS011;6123;48.864;9.200;2024-03-25T07:42:34;4.47;;;3.05;;
12118;SDS011;6123;48.864;9.200;2024-03-25T07:45:00;4.60;;;2.45;;
12118;SDS011;6123;48.864;9.200;2024-03-25T07:47:26;4.78;;;2.80;;
12118;SDS011;6123;48.864;9.200;2024-03-25T07:49:51;4.55;;;2.30;;
12118;SDS011;6123;48.864;9.200;2024-03-25T07:52:17;4.38;;;3.10;;
12118;SDS011;6123;48.864;9.200;2024-03-25T07:54:43;3.72;;;2.78;;
12118;SDS011;6123;48.864;9.200;2024-03-25T07:57:09;4.20;;;2.80;;
12118;SDS011;6123;48.864;9.200;2024-03-25T07:59:35;3.15;;;2.35;;
12118;SDS011;6123;48.864;9.200;2024-03-25T08:02:00;5.18;;;2.50;;
12118;SDS011;6123;48.864;9.200;2024-03-25T08:04:26;3.42;;;2.20;;
12118;SDS011;6123;48.864;9.200;2024-03-25T08:06:51;4.85;;;2.30;;
12118;SDS011;6123;48.864;9.200;2024-03-25T08:09:17;4.93;;;2.90;;
12118;SDS011;6123;48.864;9.200;2024-03-25T08:11:43;4.38;;;2.22;;
12118;SDS011;6123;48.864;9.200;2024-03-25T08:14:08;2.42;;;1.80;;
12118;SDS011;6123;48.864;9.200;2024-03-25T08:16:37;3.45;;;1.73;;
12118;SDS011;6123;48.864;9.200;2024-03-25T08:19:03;4.78;;;1.80;;
12118;SDS011;6123;48.864;9.200;2024-03-25T08:21:29;2.92;;;1.70;;
12118;SDS011;6123;48.864;9.200;2024-03-25T08:23:55;2.92;;;1.80;;
12118;SDS011;6123;48.864;9.200;2024-03-25T08:26:20;3.97;;;3.17;;
12118;SDS011;6123;48.864;9.200;2024-03-25T08:28:46;6.60;;;2.83;;
12118;SDS011;6123;48.864;9.200;2024-03-25T08:31:13;2.72;;;1.90;;
12118;SDS011;6123;48.864;9.200;2024-03-25T08:33:39;2.55;;;1.65;;
12118;SDS011;6123;48.864;9.200;2024-03-25T08:36:05;2.00;;;1.60;;
12118;SDS011;6123;48.864;9.200;2024-03-25T08:38:31;2.35;;;1.55;;
12118;SDS011;6123;48.864;9.200;2024-03-25T08:40:56;4.32;;;2.00;;
12118;SDS011;6123;48.864;9.200;2024-03-25T08:43:22;2.92;;;2.03;;
12118;SDS011;6123;48.864;9.200;2024-03-25T08:45:47;4.68;;;1.77;;
12118;SDS011;6123;48.864;9.200;2024-03-25T08:48:13;2.70;;;2.00;;
12118;SDS011;6123;48.864;9.200;2024-03-25T08:50:38;3.15;;;1.95;;
12118;SDS011;6123;48.864;9.200;2024-03-25T08:53:04;2.85;;;1.92;;
12118;SDS011;6123;48.864;9.200;2024-03-25T08:55:30;3.35;;;1.83;;
12118;SDS011;6123;48.864;9.200;2024-03-25T08:57:56;3.13;;;2.00;;
12118;SDS011;6123;48.864;9.200;2024-03-25T09:00:25;2.60;;;1.52;;
12118;SDS011;6123;48.864;9.200;2024-03-25T09:02:52;1.45;;;1.25;;
12118;SDS011;6123;48.864;9.200;2024-03-25T09:05:21;1.98;;;1.40;;
12118;SDS011;6123;48.864;9.200;2024-03-25T09:07:50;1.40;;;1.13;;
12118;SDS011;6123;48.864;9.200;2024-03-25T09:10:20;1.30;;;1.20;;
12118;SDS011;6123;48.864;9.200;2024-03-25T09:13:04;2.15;;;1.73;;
12118;SDS011;6123;48.864;9.200;2024-03-25T09:15:30;3.47;;;2.00;;
12118;SDS011;6123;48.864;9.200;2024-03-25T09:17:55;2.30;;;1.70;;
12118;SDS011;6123;48.864;9.200;2024-03-25T09:20:21;3.72;;;1.73;;
12118;SDS011;6123;48.864;9.200;2024-03-25T09:22:47;2.75;;;1.77;;
12118;SDS011;6123;48.864;9.200;2024-03-25T09:25:13;3.28;;;1.90;;
12118;SDS011;6123;48.864;9.200;2024-03-25T09:27:40;2.95;;;1.75;;
12118;SDS011;6123;48.864;9.200;2024-03-25T09:30:05;3.67;;;1.60;;
12118;SDS011;6123;48.864;9.200;2024-03-25T09:32:33;2.13;;;1.50;;
12118;SDS011;6123;48.864;9.200;2024-03-25T09:34:59;2.60;;;1.60;;
12118;SDS011;6123;48.864;9.200;2024-03-25T09:37:25;3.28;;;1.40;;
12118;SDS011;6123;48.864;9.200;2024-03-25T09:39:51;2.00;;;1.30;;
12118;SDS011;6123;48.864;9.200;2024-03-25T09:42:26;2.38;;;1.75;;
12118;SDS011;6123;48.864;9.200;2024-03-25T09:45:07;2.95;;;1.45;;
12118;SDS011;6123;48.864;9.200;2024-03-25T09:47:34;2.55;;;1.33;;
12118;SDS011;6123;48.864;9.200;2024-03-25T09:50:02;1.90;;;1.45;;
12118;SDS011;6123;48.864;9.200;2024-03-25T09:52:29;3.05;;;1.70;;
12118;SDS011;6123;48.864;9.200;2024-03-25T09:54:55;2.75;;;1.58;;
12118;SDS011;6123;48.864;9.200;2024-03-25T09:57:21;3.25;;;1.67;;
12118;SDS011;6123;48.864;9.200;2024-03-25T09:59:47;3.13;;;1.73;;
12118;SDS011;6123;48.864;9.200;2024-03-25T10:02:13;3.00;;;1.20;;
12118;SDS011;6123;48.864;9.200;2024-03-25T10:04:44;3.00;;;1.58;;
12118;SDS011;6123;48.864;9.200;2024-03-25T10:07:12;2.05;;;0.82;;
12118;SDS011;6123;48.864;9.200;2024-03-25T10:09:47;2.47;;;1.23;;
12118;SDS011;6123;48.864;9.200;2024-03-25T10:12:13;1.92;;;1.17;;
12118;SDS011;6123;48.864;9.200;2024-03-25T10:14:41;1.35;;;1.08;;
12118;SDS011;6123;48.864;9.200;2024-03-25T10:17:07;3.13;;;1.60;;
12118;SDS011;6123;48.864;9.200;2024-03-25T10:19:33;2.25;;;1.20;;
12118;SDS011;6123;48.864;9.200;2024-03-25T10:22:05;2.58;;;1.20;;
12118;SDS011;6123;48.864;9.200;2024-03-25T10:24:44;3.40;;;1.10;;
12118;SDS011;6123;48.864;9.200;2024-03-25T10:27:11;2.08;;;1.23;;
12118;SDS011;6123;48.864;9.200;2024-03-25T10:29:53;1.70;;;1.08;;
12118;SDS011;6123;48.864;9.200;2024-03-25T10:32:20;2.55;;;1.52;;
12118;SDS011;6123;48.864;9.200;2024-03-25T10:34:49;4.03;;;1.45;;
12118;SDS011;6123;48.864;9.200;2024-03-25T10:37:15;1.85;;;1.50;;
12118;SDS011;6123;48.864;9.200;2024-03-25T10:39:49;2.80;;;1.52;;
12118;SDS011;6123;48.864;9.200;2024-03-25T10:42:18;2.17;;;1.73;;
12118;SDS011;6123;48.864;9.200;2024-03-25T10:44:46;2.42;;;1.70;;
12118;SDS011;6123;48.864;9.200;2024-03-25T10:47:18;1.67;;;1.23;;
12118;SDS011;6123;48.864;9.200;2024-03-25T10:49:48;1.88;;;1.50;;
12118;SDS011;6123;48.864;9.200;2024-03-25T10:52:34;2.90;;;1.35;;
12118;SDS011;6123;48.864;9.200;2024-03-25T10:55:02;1.75;;;1.25;;
12118;SDS011;6123;48.864;9.200;2024-03-25T10:57:28;3.25;;;1.60;;
12118;SDS011;6123;48.864;9.200;2024-03-25T10:59:54;1.65;;;1.35;;
12118;SDS011;6123;48.864;9.200;2024-03-25T11:02:22;3.15;;;1.35;;
12118;SDS011;6123;48.864;9.200;2024-03-25T11:04:48;2.28;;;1.50;;
12118;SDS011;6123;48.864;9.200;2024-03-25T11:07:16;3.30;;;1.52;;
12118;SDS011;6123;48.864;9.200;2024-03-25T11:09:42;2.38;;;1.45;;
12118;SDS011;6123;48.864;9.200;2024-03-25T11:12:11;1.58;;;1.40;;
12118;SDS011;6123;48.864;9.200;2024-03-25T11:14:38;1.60;;;1.08;;
12118;SDS011;6123;48.864;9.200;2024-03-25T11:17:14;2.85;;;1.70;;
12118;SDS011;6123;48.864;9.200;2024-03-25T11:19:40;3.03;;;1.73;;
12118;SDS011;6123;48.864;9.200;2024-03-25T11:22:07;1.60;;;1.40;;
12118;SDS011;6123;48.864;9.200;2024-03-25T11:24:34;3.85;;;1.58;;
12118;SDS011;6123;48.864;9.200;2024-03-25T11:27:02;2.22;;;1.58;;
12118;SDS011;6123;48.864;9.200;2024-03-25T11:29:31;4.38;;;1.88;;
12118;SDS011;6123;48.864;9.200;2024-03-25T11:31:56;2.90;;;1.63;;
12118;SDS011;6123;48.864;9.200;2024-03-25T11:34:27;3.05;;;1.98;;
12118;SDS011;6123;48.864;9.200;2024-03-25T11:36:53;1.98;;;1.55;;
12118;SDS011;6123;48.864;9.200;2024-03-25T11:39:22;2.28;;;1.88;;
12118;SDS011;6123;48.864;9.200;2024-03-25T11:41:49;3.33;;;1.90;;
12118;SDS011;6123;48.864;9.200;2024-03-25T11:44:14;3.08;;;1.88;;
12118;SDS011;6123;48.864;9.200;2024-03-25T11:46:42;2.47;;;1.50;;
12118;SDS011;6123;48.864;9.200;2024-03-25T11:49:12;2.22;;;1.90;;
12118;SDS011;6123;48.864;9.200;2024-03-25T11:51:39;2.70;;;1.80;;
12118;SDS011;6123;48.864;9.200;2024-03-25T11:54:12;2.08;;;1.88;;
12118;SDS011;6123;48.864;9.200;2024-03-25T11:56:38;2.78;;;1.52;;
12118;SDS011;6123;48.864;9.200;2024-03-25T11:59:04;2.10;;;1.90;;
12118;SDS011;6123;48.864;9.200;2024-03-25T12:01:30;2.92;;;1.98;;
12118;SDS011;6123;48.864;9.200;2024-03-25T12:03:56;2.88;;;1.88;;
12118;SDS011;6123;48.864;9.200;2024-03-25T12:06:23;3.13;;;1.77;;
12118;SDS011;6123;48.864;9.200;2024-03-25T12:08:48;1.75;;;1.65;;
12118;SDS011;6123;48.864;9.200;2024-03-25T12:11:32;3.72;;;1.67;;
12118;SDS011;6123;48.864;9.200;2024-03-25T12:13:59;2.55;;;1.92;;
12118;SDS011;6123;48.864;9.200;2024-03-25T12:16:25;1.80;;;1.45;;
12118;SDS011;6123;48.864;9.200;2024-03-25T12:18:53;2.67;;;2.00;;
12118;SDS011;6123;48.864;9.200;2024-03-25T12:21:19;2.47;;;1.85;;
12118;SDS011;6123;48.864;9.200;2024-03-25T12:23:45;2.25;;;1.50;;
12118;SDS011;6123;48.864;9.200;2024-03-25T12:26:12;1.83;;;1.52;;
12118;SDS011;6123;48.864;9.200;2024-03-25T12:28:38;1.77;;;1.67;;
12118;SDS011;6123;48.864;9.200;2024-03-25T12:31:09;3.13;;;2.00;;
12118;SDS011;6123;48.864;9.200;2024-03-25T12:33:40;4.07;;;2.00;;
12118;SDS011;6123;48.864;9.200;2024-03-25T12:36:06;3.08;;;2.10;;
12118;SDS011;6123;48.864;9.200;2024-03-25T12:38:31;2.38;;;1.88;;
12118;SDS011;6123;48.864;9.200;2024-03-25T12:41:10;4.90;;;2.22;;
12118;SDS011;6123;48.864;9.200;2024-03-25T12:43:41;4.18;;;2.25;;
12118;SDS011;6123;48.864;9.200;2024-03-25T12:46:08;2.13;;;1.70;;
12118;SDS011;6123;48.864;9.200;2024-03-25T12:48:38;2.13;;;1.70;;
12118;SDS011;6123;48.864;9.200;2024-03-25T12:51:04;2.33;;;1.75;;
12118;SDS011;6123;48.864;9.200;2024-03-25T12:53:30;2.63;;;1.70;;
12118;SDS011;6123;48.864;9.200;2024-03-25T12:55:56;2.25;;;2.05;;
12118;SDS011;6123;48.864;9.200;2024-03-25T12:58:22;2.55;;;1.83;;
12118;SDS011;6123;48.864;9.200;2024-03-25T13:00:47;3.20;;;1.52;;
12118;SDS011;6123;48.864;9.200;2024-03-25T13:03:14;3.35;;;1.83;;
12118;SDS011;6123;48.864;9.200;2024-03-25T13:05:40;3.17;;;2.42;;
12118;SDS011;6123;48.864;9.200;2024-03-25T13:08:08;2.00;;;1.80;;
12118;SDS011;6123;48.864;9.200;2024-03-25T13:10:33;1.88;;;1.48;;
12118;SDS011;6123;48.864;9.200;2024-03-25T13:12:59;2.05;;;1.85;;
12118;SDS011;6123;48.864;9.200;2024-03-25T13:15:26;3.05;;;1.70;;
12118;SDS011;6123;48.864;9.200;2024-03-25T13:17:53;2.67;;;1.80;;
12118;SDS011;6123;48.864;9.200;2024-03-25T13:20:18;2.13;;;1.90;;
12118;SDS011;6123;48.864;9.200;2024-03-25T13:22:44;1.98;;;1.75;;
12118;SDS011;6123;48.864;9.200;2024-03-25T13:25:11;1.85;;;1.50;;
12118;SDS011;6123;48.864;9.200;2024-03-25T13:27:37;2.80;;;1.90;;
12118;SDS011;6123;48.864;9.200;2024-03-25T13:30:03;2.60;;;1.70;;
12118;SDS011;6123;48.864;9.200;2024-03-25T13:32:29;2.38;;;1.73;;
12118;SDS011;6123;48.864;9.200;2024-03-25T13:34:55;2.53;;;1.70;;
12118;SDS011;6123;48.864;9.200;2024-03-25T13:37:20;3.05;;;1.60;;
12118;SDS011;6123;48.864;9.200;2024-03-25T13:39:46;1.92;;;1.83;;
12118;SDS011;6123;48.864;9.200;2024-03-25T13:42:11;2.30;;;1.80;;
12118;SDS011;6123;48.864;9.200;2024-03-25T13:44:37;2.45;;;1.67;;
12118;SDS011;6123;48.864;9.200;2024-03-25T13:47:03;1.92;;;1.60;;
12118;SDS011;6123;48.864;9.200;2024-03-25T13:49:29;1.98;;;1.77;;
12118;SDS011;6123;48.864;9.200;2024-03-25T13:51:57;1.70;;;1.60;;
12118;SDS011;6123;48.864;9.200;2024-03-25T13:54:23;1.50;;;1.40;;
12118;SDS011;6123;48.864;9.200;2024-03-25T13:56:53;2.13;;;1.83;;
12118;SDS011;6123;48.864;9.200;2024-03-25T13:59:19;1.95;;;1.70;;
12118;SDS011;6123;48.864;9.200;2024-03-25T14:01:45;1.60;;;1.50;;
12118;SDS011;6123;48.864;9.200;2024-03-25T14:04:10;2.55;;;1.92;;
12118;SDS011;6123;48.864;9.200;2024-03-25T14:06:36;2.47;;;1.52;;
12118;SDS011;6123;48.864;9.200;2024-03-25T14:09:03;2.83;;;1.70;;
12118;SDS011;6123;48.864;9.200;2024-03-25T14:11:37;2.65;;;1.85;;
12118;SDS011;6123;48.864;9.200;2024-03-25T14:14:03;1.73;;;1.58;;
12118;SDS011;6123;48.864;9.200;2024-03-25T14:16:28;2.50;;;2.20;;
12118;SDS011;6123;48.864;9.200;2024-03-25T14:18:54;2.78;;;1.88;;
12118;SDS011;6123;48.864;9.200;2024-03-25T14:21:20;2.00;;;1.40;;
12118;SDS011;6123;48.864;9.200;2024-03-25T14:23:45;2.33;;;1.58;;
12118;SDS011;6123;48.864;9.200;2024-03-25T14:26:12;2.90;;;1.65;;
12118;SDS011;6123;48.864;9.200;2024-03-25T14:28:38;2.67;;;1.67;;
12118;SDS011;6123;48.864;9.200;2024-03-25T14:31:05;3.60;;;1.55;;
12118;SDS011;6123;48.864;9.200;2024-03-25T14:33:31;1.75;;;1.48;;
12118;SDS011;6123;48.864;9.200;2024-03-25T14:35:56;2.15;;;1.60;;
12118;SDS011;6123;48.864;9.200;2024-03-25T14:38:22;2.20;;;1.70;;
12118;SDS011;6123;48.864;9.200;2024-03-25T14:40:47;1.52;;;1.25;;
12118;SDS011;6123;48.864;9.200;2024-03-25T14:43:13;2.83;;;1.65;;
12118;SDS011;6123;48.864;9.200;2024-03-25T14:45:40;1.98;;;1.77;;
12118;SDS011;6123;48.864;9.200;2024-03-25T14:48:06;1.95;;;1.52;;
12118;SDS011;6123;48.864;9.200;2024-03-25T14:50:32;3.75;;;1.70;;
12118;SDS011;6123;48.864;9.200;2024-03-25T14:52:57;2.65;;;1.65;;
12118;SDS011;6123;48.864;9.200;2024-03-25T14:55:23;2.47;;;1.55;;
12118;SDS011;6123;48.864;9.200;2024-03-25T14:57:48;2.80;;;2.15;;